Time;durP1;ratioP1;P1;durP2;ratioP2;P2;SDS_P1;SDS_P2;PMS_P1;PMS_P2;Temp;Humidity;BMP_temperature;BMP_pressure;BME280_temperature;BME280_humidity;BME280_pressure;Samples;Min_cycle;Max_cycle;Signal;HPM_P1;HPM_P2
2021/07/18 00:02:06;;;;;;;11.45;8.55;;;20.20;99.90;;;;;;5002838;28;20042;-80
2021/07/18 00:04:33;;;;;;;11.30;8.30;;;20.20;99.90;;;;;;4985358;28;20142;-79
2021/07/18 00:07:00;;;;;;;11.93;8.40;;;20.10;99.90;;;;;;4996419;28;20171;-79
2021/07/18 00:09:27;;;;;;;11.15;8.32;;;20.10;99.90;;;;;;5005146;28;20094;-79
2021/07/18 00:11:54;;;;;;;12.05;8.70;;;20.20;99.90;;;;;;4985984;28;20078;-78
2021/07/18 00:14:21;;;;;;;10.85;8.48;;;20.20;99.90;;;;;;4984869;28;20132;-80
2021/07/18 00:17:47;;;;;;;12.05;8.60;;;20.10;99.90;;;;;;4992610;28;20424;-79
2021/07/18 00:23:57;;;;;;;13.45;9.20;;;20.10;99.90;;;;;;4963752;28;20565;-79
2021/07/18 00:26:25;;;;;;;13.40;9.52;;;20.00;99.90;;;;;;4958402;28;20047;-77
2021/07/18 00:28:53;;;;;;;10.90;8.50;;;20.00;99.90;;;;;;4973300;28;20082;-79
2021/07/18 00:31:20;;;;;;;11.77;8.80;;;19.90;99.90;;;;;;4961038;28;20047;-80
2021/07/18 00:33:47;;;;;;;11.52;8.70;;;19.80;99.90;;;;;;4972007;28;20137;-80
2021/07/18 00:36:14;;;;;;;12.40;8.82;;;19.80;99.90;;;;;;4968850;28;20039;-79
2021/07/18 00:38:41;;;;;;;12.65;9.30;;;19.70;99.90;;;;;;4959598;28;20555;-79
2021/07/18 00:41:09;;;;;;;11.82;8.40;;;19.60;99.90;;;;;;4967415;28;20047;-80
2021/07/18 00:43:36;;;;;;;14.82;9.07;;;19.60;99.90;;;;;;4957850;28;20145;-80
2021/07/18 00:46:04;;;;;;;13.90;9.48;;;19.60;99.90;;;;;;4970497;28;20102;-79
2021/07/18 00:48:32;;;;;;;12.27;8.88;;;19.50;99.90;;;;;;4962459;28;20416;-79
2021/07/18 00:51:00;;;;;;;11.73;8.77;;;19.50;99.90;;;;;;4962638;28;20527;-78
2021/07/18 00:53:27;;;;;;;13.15;9.18;;;19.40;99.90;;;;;;4965399;28;20537;-79
2021/07/18 00:55:55;;;;;;;15.20;9.50;;;19.40;99.90;;;;;;4958130;28;20043;-79
2021/07/18 00:58:28;;;;;;;12.07;9.05;;;19.40;99.90;;;;;;4967608;28;20049;-80
2021/07/18 01:00:56;;;;;;;14.85;9.82;;;19.30;99.90;;;;;;4966089;28;20054;-79
2021/07/18 01:03:25;;;;;;;17.58;9.95;;;19.40;99.90;;;;;;4958963;28;20062;-79
2021/07/18 01:05:52;;;;;;;13.57;9.10;;;19.30;99.90;;;;;;4970534;28;20097;-79
2021/07/18 01:08:19;;;;;;;12.40;8.50;;;19.30;99.90;;;;;;4954957;28;20138;-78
2021/07/18 01:10:46;;;;;;;15.70;10.18;;;19.30;99.90;;;;;;4968133;28;20082;-77
2021/07/18 01:13:13;;;;;;;13.45;9.38;;;19.30;99.90;;;;;;4964258;28;20134;-79
2021/07/18 01:15:42;;;;;;;14.98;9.00;;;19.30;99.90;;;;;;4974278;28;20082;-79
2021/07/18 01:18:09;;;;;;;12.50;9.20;;;19.20;99.90;;;;;;4972798;28;20126;-79
2021/07/18 01:20:38;;;;;;;11.90;8.63;;;19.20;99.90;;;;;;4966448;28;20130;-78
2021/07/18 01:23:07;;;;;;;10.98;8.55;;;19.20;99.90;;;;;;4977120;28;20092;-79
2021/07/18 01:25:35;;;;;;;13.68;8.70;;;19.20;99.90;;;;;;4961225;28;20058;-79
2021/07/18 01:28:05;;;;;;;12.07;9.07;;;19.20;99.90;;;;;;4973569;28;20103;-79
2021/07/18 01:30:32;;;;;;;11.38;8.40;;;19.20;99.90;;;;;;4965475;28;20042;-79
2021/07/18 01:32:59;;;;;;;11.85;8.32;;;19.10;99.90;;;;;;4963491;28;20137;-78
2021/07/18 01:35:28;;;;;;;12.85;8.55;;;19.10;99.90;;;;;;4968193;28;20055;-78
2021/07/18 01:37:57;;;;;;;11.82;8.45;;;19.00;99.90;;;;;;4958557;28;20568;-79
2021/07/18 01:40:25;;;;;;;11.20;8.57;;;19.00;99.90;;;;;;4964375;28;20053;-78
2021/07/18 01:42:55;;;;;;;11.88;8.68;;;19.00;99.90;;;;;;4966248;28;20057;-78
2021/07/18 01:45:22;;;;;;;13.07;8.88;;;18.90;99.90;;;;;;4971970;28;20109;-79
2021/07/18 01:47:49;;;;;;;10.05;7.90;;;18.90;99.90;;;;;;4973654;28;20134;-79
2021/07/18 01:50:17;;;;;;;13.55;8.32;;;18.90;99.90;;;;;;4958485;28;20075;-79
2021/07/18 01:52:45;;;;;;;11.20;8.55;;;18.80;99.90;;;;;;4967559;28;20077;-79
2021/07/18 01:55:14;;;;;;;11.20;8.57;;;18.80;99.90;;;;;;4964028;28;20069;-80
2021/07/18 01:57:42;;;;;;;14.48;8.63;;;18.70;99.90;;;;;;4974130;28;20481;-78
2021/07/18 02:00:13;;;;;;;11.57;8.88;;;18.70;99.90;;;;;;4971463;28;20049;-80
2021/07/18 02:02:42;;;;;;;13.57;8.77;;;18.70;99.90;;;;;;4964490;28;20081;-79
2021/07/18 02:05:10;;;;;;;12.57;9.00;;;18.60;99.90;;;;;;4958024;28;20050;-79
2021/07/18 02:07:37;;;;;;;11.25;8.07;;;18.60;99.90;;;;;;4973030;28;20129;-79
2021/07/18 02:10:06;;;;;;;11.13;8.38;;;18.50;99.90;;;;;;4961346;28;20053;-79
2021/07/18 02:12:34;;;;;;;14.88;8.68;;;18.50;99.90;;;;;;4968432;28;20050;-78
2021/07/18 02:15:03;;;;;;;13.13;8.85;;;18.50;99.90;;;;;;4968497;28;20065;-78
2021/07/18 02:17:30;;;;;;;12.38;8.80;;;18.40;99.90;;;;;;4968552;28;20049;-80
2021/07/18 02:19:57;;;;;;;12.15;8.15;;;18.40;99.90;;;;;;4972686;28;20044;-80
2021/07/18 02:22:32;;;;;;;13.38;8.18;;;18.40;99.90;;;;;;4963814;28;20512;-79
2021/07/18 02:24:59;;;;;;;11.32;7.90;;;18.40;99.90;;;;;;4964905;28;20049;-79
2021/07/18 02:27:26;;;;;;;12.75;8.10;;;18.40;99.90;;;;;;4972069;28;20135;-79
2021/07/18 02:29:54;;;;;;;12.52;8.10;;;18.40;99.90;;;;;;4959842;28;20129;-78
2021/07/18 02:32:22;;;;;;;14.05;8.18;;;18.40;99.90;;;;;;4976167;28;20049;-79
2021/07/18 02:34:49;;;;;;;10.70;7.57;;;18.40;99.90;;;;;;4969006;28;20047;-79
2021/07/18 02:37:16;;;;;;;11.18;7.78;;;18.50;99.90;;;;;;4973341;28;20053;-78
2021/07/18 02:39:43;;;;;;;10.73;8.10;;;18.50;99.90;;;;;;4967874;28;20130;-79
2021/07/18 02:42:10;;;;;;;10.38;8.05;;;18.50;99.90;;;;;;4967275;28;20049;-79
2021/07/18 02:44:37;;;;;;;11.90;8.00;;;18.50;99.90;;;;;;4966834;28;20079;-79
2021/07/18 02:47:05;;;;;;;10.88;7.65;;;18.50;99.90;;;;;;4968762;28;20050;-79
2021/07/18 02:49:33;;;;;;;9.93;7.80;;;18.40;99.90;;;;;;4975536;28;20075;-77
2021/07/18 02:52:00;;;;;;;10.30;7.72;;;18.40;99.90;;;;;;4970346;28;20077;-79
2021/07/18 02:54:27;;;;;;;10.52;7.63;;;18.40;99.90;;;;;;4960401;28;20059;-79
2021/07/18 02:56:54;;;;;;;12.70;8.27;;;18.40;99.90;;;;;;4971729;28;20134;-79
2021/07/18 02:59:21;;;;;;;10.45;7.72;;;18.40;99.90;;;;;;4962702;28;20569;-80
2021/07/18 03:01:48;;;;;;;11.45;7.47;;;18.40;99.90;;;;;;4964973;28;20057;-79
2021/07/18 03:04:15;;;;;;;11.52;7.97;;;18.30;99.90;;;;;;4961247;28;20047;-78
2021/07/18 03:06:44;;;;;;;11.95;7.70;;;18.20;99.90;;;;;;4970889;28;20639;-79
2021/07/18 03:09:11;;;;;;;11.68;7.28;;;18.20;99.90;;;;;;4972415;28;20051;-79
2021/07/18 03:11:38;;;;;;;10.88;7.57;;;18.20;99.90;;;;;;4967525;28;20047;-79
2021/07/18 03:14:05;;;;;;;11.43;7.85;;;18.20;99.90;;;;;;4959494;28;20055;-78
2021/07/18 03:16:32;;;;;;;12.07;7.25;;;18.20;99.90;;;;;;4969328;28;20046;-79
2021/07/18 03:18:59;;;;;;;9.40;7.10;;;18.10;99.90;;;;;;4954094;28;20047;-79
2021/07/18 03:21:26;;;;;;;11.85;8.23;;;18.20;99.90;;;;;;4960170;28;20126;-79
2021/07/18 03:23:54;;;;;;;13.65;7.75;;;18.10;99.90;;;;;;4979686;28;20456;-79
2021/07/18 03:26:21;;;;;;;11.23;7.93;;;18.10;99.90;;;;;;4981622;28;20115;-80
2021/07/18 03:28:48;;;;;;;10.98;7.32;;;18.10;99.90;;;;;;4980992;28;20151;-79
2021/07/18 03:31:15;;;;;;;11.95;7.15;;;18.00;99.90;;;;;;4963033;28;20107;-79
2021/07/18 03:33:42;;;;;;;11.85;6.90;;;18.00;99.90;;;;;;4963480;28;20054;-80
2021/07/18 03:36:09;;;;;;;11.05;7.18;;;18.00;99.90;;;;;;4959259;28;20131;-79
2021/07/18 03:38:37;;;;;;;11.35;6.85;;;17.90;99.90;;;;;;4968959;28;20415;-78
2021/07/18 03:41:05;;;;;;;10.73;7.35;;;18.00;99.90;;;;;;4969211;28;20138;-79
2021/07/18 03:43:33;;;;;;;12.68;7.50;;;17.90;99.90;;;;;;4959911;28;20382;-79
2021/07/18 03:46:00;;;;;;;10.48;7.07;;;17.90;99.90;;;;;;4968419;28;20054;-79
2021/07/18 03:48:27;;;;;;;10.60;7.03;;;17.90;99.90;;;;;;4960115;28;20382;-79
2021/07/18 03:50:54;;;;;;;11.90;7.38;;;17.80;99.90;;;;;;4955829;28;20133;-79
2021/07/18 03:53:21;;;;;;;10.38;6.85;;;17.80;99.90;;;;;;4972076;28;20046;-79
2021/07/18 03:55:48;;;;;;;10.45;6.97;;;17.80;99.90;;;;;;4961715;28;20138;-78
2021/07/18 03:58:17;;;;;;;10.55;6.88;;;17.80;99.90;;;;;;4966765;28;20050;-79
2021/07/18 04:00:44;;;;;;;11.23;6.95;;;17.80;99.90;;;;;;4963105;28;20049;-79
2021/07/18 04:03:11;;;;;;;11.85;7.38;;;17.80;99.90;;;;;;4961418;28;20137;-78
2021/07/18 04:05:38;;;;;;;10.10;6.50;;;17.70;99.90;;;;;;4971235;28;20564;-79
2021/07/18 04:08:06;;;;;;;11.43;7.13;;;17.70;99.90;;;;;;4956314;28;20054;-79
2021/07/18 04:10:33;;;;;;;9.13;6.75;;;17.70;99.90;;;;;;4967211;28;20118;-78
2021/07/18 04:13:00;;;;;;;9.50;6.28;;;17.70;99.90;;;;;;4974447;28;20121;-79
2021/07/18 04:15:29;;;;;;;9.57;6.75;;;17.60;99.90;;;;;;4959167;28;20053;-78
2021/07/18 04:17:56;;;;;;;12.13;6.70;;;17.60;99.90;;;;;;4971305;28;20126;-79
2021/07/18 04:20:23;;;;;;;8.90;5.93;;;17.60;99.90;;;;;;4961324;28;20130;-79
2021/07/18 04:22:50;;;;;;;10.25;7.10;;;17.60;99.90;;;;;;4958231;28;20129;-78
2021/07/18 04:25:17;;;;;;;12.02;6.57;;;17.60;99.90;;;;;;4965050;28;20057;-78
2021/07/18 04:27:44;;;;;;;11.40;6.43;;;17.60;99.90;;;;;;4965895;28;20081;-78
2021/07/18 04:30:12;;;;;;;9.88;6.63;;;17.60;99.90;;;;;;4968856;28;20044;-79
2021/07/18 04:32:41;;;;;;;9.95;6.60;;;17.60;99.90;;;;;;4963798;28;20054;-80
2021/07/18 04:35:09;;;;;;;9.15;6.53;;;17.60;99.90;;;;;;4960189;28;20061;-79
2021/07/18 04:37:37;;;;;;;8.77;6.28;;;17.60;99.90;;;;;;4966597;28;20122;-79
2021/07/18 04:40:06;;;;;;;9.85;6.75;;;17.70;99.90;;;;;;4958002;28;20401;-79
2021/07/18 04:42:33;;;;;;;10.63;6.40;;;17.70;99.90;;;;;;4966197;28;20407;-78
2021/07/18 04:45:01;;;;;;;11.38;7.22;;;17.70;99.90;;;;;;4969117;28;20077;-79
2021/07/18 04:47:28;;;;;;;11.95;6.63;;;17.70;99.90;;;;;;4970362;28;20485;-78
2021/07/18 04:49:56;;;;;;;11.43;6.50;;;17.70;99.90;;;;;;4966493;28;20122;-80
2021/07/18 04:52:23;;;;;;;8.98;6.15;;;17.70;99.90;;;;;;4965546;28;20133;-83
2021/07/18 04:54:50;;;;;;;7.57;5.88;;;17.70;99.90;;;;;;4967595;28;20138;-83
2021/07/18 04:57:17;;;;;;;8.73;6.28;;;17.70;99.90;;;;;;4972579;28;20158;-83
2021/07/18 04:59:44;;;;;;;8.93;6.00;;;17.80;99.90;;;;;;4969299;28;20449;-81
2021/07/18 05:02:11;;;;;;;9.63;6.20;;;17.80;99.90;;;;;;4970792;28;20049;-80
2021/07/18 05:04:38;;;;;;;8.27;5.70;;;17.90;99.90;;;;;;4980824;28;20052;-79
2021/07/18 05:07:08;;;;;;;7.80;5.85;;;17.90;99.90;;;;;;4981696;28;20049;-79
2021/07/18 05:09:35;;;;;;;8.50;5.80;;;17.90;99.90;;;;;;4977172;28;20101;-80
2021/07/18 05:12:02;;;;;;;8.63;5.80;;;17.90;99.90;;;;;;4976918;28;20527;-80
2021/07/18 05:14:29;;;;;;;10.57;5.78;;;18.00;99.90;;;;;;4977691;28;20133;-89
2021/07/18 05:16:56;;;;;;;10.07;5.85;;;17.90;99.90;;;;;;4973630;28;20137;-82
2021/07/18 05:19:24;;;;;;;8.98;5.72;;;17.90;99.90;;;;;;4974155;28;20130;-82
2021/07/18 05:21:51;;;;;;;7.15;5.43;;;17.90;99.90;;;;;;4976852;28;20513;-81
2021/07/18 05:24:19;;;;;;;8.27;5.55;;;17.90;99.90;;;;;;4976607;28;20100;-80
2021/07/18 05:26:46;;;;;;;8.85;5.50;;;17.90;99.90;;;;;;4965737;28;20499;-88
2021/07/18 05:29:13;;;;;;;7.40;5.43;;;18.00;99.90;;;;;;4967447;28;20133;-80
2021/07/18 05:31:40;;;;;;;8.18;5.65;;;18.00;99.90;;;;;;4976304;28;20133;-79
2021/07/18 05:34:07;;;;;;;8.70;5.78;;;18.10;99.90;;;;;;4975405;28;20129;-80
2021/07/18 05:36:34;;;;;;;9.55;5.80;;;18.10;99.90;;;;;;4976599;28;20129;-81
2021/07/18 05:39:01;;;;;;;10.15;5.15;;;18.20;99.90;;;;;;4968035;28;20043;-79
2021/07/18 05:41:29;;;;;;;8.48;5.07;;;18.20;99.90;;;;;;4972945;28;20129;-79
2021/07/18 05:43:57;;;;;;;7.75;5.18;;;18.20;99.90;;;;;;4976661;28;20137;-79
2021/07/18 05:46:24;;;;;;;7.00;4.80;;;18.30;99.90;;;;;;4976475;28;20129;-80
2021/07/18 05:48:51;;;;;;;6.93;4.68;;;18.30;99.90;;;;;;4976742;28;20063;-81
2021/07/18 05:51:18;;;;;;;9.00;5.22;;;18.40;99.90;;;;;;4976874;28;20130;-80
2021/07/18 05:53:45;;;;;;;7.90;4.95;;;18.40;99.90;;;;;;4976332;28;20133;-80
2021/07/18 05:56:12;;;;;;;7.13;4.35;;;18.40;99.90;;;;;;4971807;28;20049;-82
2021/07/18 05:58:40;;;;;;;7.15;4.53;;;18.40;99.90;;;;;;4967732;28;20093;-83
2021/07/18 06:01:08;;;;;;;7.38;3.90;;;18.40;99.90;;;;;;4969280;28;20050;-83
2021/07/18 06:03:35;;;;;;;6.70;4.30;;;18.40;99.90;;;;;;4961183;28;20126;-81
2021/07/18 06:06:02;;;;;;;6.38;3.60;;;18.40;99.90;;;;;;4972443;28;20130;-79
2021/07/18 06:08:29;;;;;;;6.68;3.78;;;18.40;99.90;;;;;;4973265;28;20096;-80
2021/07/18 06:10:56;;;;;;;7.10;3.85;;;18.40;99.90;;;;;;4976420;28;20130;-80
2021/07/18 06:13:23;;;;;;;5.97;3.53;;;18.50;99.90;;;;;;4975873;28;20145;-81
2021/07/18 06:15:51;;;;;;;6.85;4.35;;;18.50;99.90;;;;;;4975937;28;20054;-81
2021/07/18 06:18:18;;;;;;;5.95;3.63;;;18.50;99.90;;;;;;4975835;28;20137;-81
2021/07/18 06:20:45;;;;;;;6.95;3.67;;;18.50;99.90;;;;;;4975854;28;20133;-84
2021/07/18 06:23:12;;;;;;;6.25;3.55;;;18.50;99.90;;;;;;4975962;28;20129;-83
2021/07/18 06:25:39;;;;;;;5.97;3.05;;;18.50;99.90;;;;;;4967203;28;20043;-84
2021/07/18 06:28:06;;;;;;;6.72;3.25;;;18.60;99.90;;;;;;4963959;28;20138;-81
2021/07/18 06:30:34;;;;;;;5.93;2.97;;;18.60;99.90;;;;;;4966902;28;20125;-80
2021/07/18 06:33:02;;;;;;;5.78;3.10;;;18.70;99.90;;;;;;4975549;28;20146;-80
2021/07/18 06:35:29;;;;;;;5.63;2.70;;;18.70;99.90;;;;;;4971679;28;20134;-80
2021/07/18 06:37:56;;;;;;;5.22;2.90;;;18.70;99.90;;;;;;4970423;28;20049;-81
2021/07/18 06:40:24;;;;;;;6.05;2.88;;;18.70;99.90;;;;;;4972848;28;20138;-80
2021/07/18 06:42:51;;;;;;;4.45;2.50;;;18.80;99.90;;;;;;4973319;28;20496;-78
2021/07/18 06:45:18;;;;;;;5.35;2.47;;;18.80;99.90;;;;;;4969238;28;20051;-80
2021/07/18 06:47:45;;;;;;;6.32;2.20;;;18.80;99.90;;;;;;4975386;28;20128;-81
2021/07/18 06:50:16;;;;;;;4.70;2.30;;;18.90;99.80;;;;;;4975378;28;20129;-81
2021/07/18 06:52:44;;;;;;;4.72;2.00;;;18.90;99.60;;;;;;4972851;28;20050;-80
2021/07/18 06:55:14;;;;;;;6.07;2.35;;;18.90;99.40;;;;;;4967919;28;20057;-80
2021/07/18 06:57:49;;;;;;;4.40;2.25;;;18.90;99.30;;;;;;4967682;28;20130;-81
2021/07/18 07:00:18;;;;;;;5.28;2.22;;;19.00;99.20;;;;;;4965806;28;20042;-82
2021/07/18 07:02:45;;;;;;;5.15;2.20;;;19.00;99.30;;;;;;4974585;28;20066;-80
2021/07/18 07:05:14;;;;;;;3.85;2.10;;;19.00;98.90;;;;;;4975110;28;20051;-80
2021/07/18 07:07:46;;;;;;;4.18;2.33;;;19.10;99.10;;;;;;4973948;28;20447;-81
2021/07/18 07:10:14;;;;;;;4.20;2.10;;;19.10;98.80;;;;;;4974458;28;20444;-80
2021/07/18 07:12:41;;;;;;;3.92;1.80;;;19.10;98.50;;;;;;4969104;28;20047;-83
2021/07/18 07:15:12;;;;;;;5.15;1.98;;;19.10;98.60;;;;;;4957017;28;20126;-83
2021/07/18 07:17:40;;;;;;;6.35;2.20;;;19.10;98.00;;;;;;4964585;28;20130;-83
2021/07/18 07:20:09;;;;;;;4.25;1.80;;;19.20;98.30;;;;;;4962590;28;20047;-83
2021/07/18 07:22:38;;;;;;;5.05;2.10;;;19.20;98.40;;;;;;4957237;28;20109;-83
2021/07/18 07:25:07;;;;;;;4.35;1.92;;;19.20;98.00;;;;;;4971848;28;20130;-86
2021/07/18 07:27:35;;;;;;;5.85;2.00;;;19.20;98.30;;;;;;4967077;28;20134;-85
2021/07/18 07:30:02;;;;;;;4.38;1.90;;;19.30;98.50;;;;;;4956179;29;20112;-87
2021/07/18 07:32:29;;;;;;;4.43;2.05;;;19.30;98.50;;;;;;4965632;28;20470;-92
2021/07/18 07:34:56;;;;;;;3.20;1.70;;;19.30;98.40;;;;;;4975069;28;20066;-89
2021/07/18 07:37:25;;;;;;;4.53;1.73;;;19.40;98.40;;;;;;4973985;28;20049;-89
2021/07/18 07:39:54;;;;;;;3.95;1.77;;;19.40;98.20;;;;;;4974476;28;20058;-92
2021/07/18 07:42:22;;;;;;;4.72;1.77;;;19.40;98.00;;;;;;4990485;28;20125;-88
2021/07/18 07:44:52;;;;;;;4.75;2.10;;;19.40;97.80;;;;;;4975281;28;20146;-91
2021/07/18 07:47:19;;;;;;;6.43;2.10;;;19.50;97.70;;;;;;4974556;28;20082;-91
2021/07/18 07:49:47;;;;;;;3.83;1.70;;;19.50;97.80;;;;;;4975466;28;20050;-92
2021/07/18 07:52:15;;;;;;;5.22;1.80;;;19.60;97.90;;;;;;4975635;28;20074;-88
2021/07/18 07:54:44;;;;;;;4.93;2.10;;;19.60;97.70;;;;;;4976715;28;20097;-90
2021/07/18 07:57:13;;;;;;;5.53;2.00;;;19.70;97.80;;;;;;4975964;28;20146;-89
2021/07/18 07:59:42;;;;;;;4.13;2.13;;;19.70;97.40;;;;;;4975535;28;20137;-88
2021/07/18 08:02:09;;;;;;;4.78;1.83;;;19.70;97.40;;;;;;4971806;28;20042;-88
2021/07/18 08:04:36;;;;;;;4.80;2.00;;;19.70;97.30;;;;;;4974394;28;20141;-88
2021/07/18 08:07:04;;;;;;;5.70;2.17;;;19.70;97.40;;;;;;4957640;28;20042;-87
2021/07/18 08:09:32;;;;;;;6.53;2.13;;;19.70;97.20;;;;;;4974263;28;20171;-88
2021/07/18 08:11:59;;;;;;;5.57;2.10;;;19.70;97.20;;;;;;4974415;28;20141;-87
2021/07/18 08:14:28;;;;;;;4.22;2.00;;;19.80;97.30;;;;;;4969761;28;20567;-87
2021/07/18 08:16:56;;;;;;;3.70;1.80;;;19.80;97.30;;;;;;4965977;28;20500;-90
2021/07/18 08:19:23;;;;;;;5.15;2.00;;;19.90;97.20;;;;;;4955152;28;20051;-90
2021/07/18 08:21:50;;;;;;;5.40;2.35;;;19.90;97.30;;;;;;4955880;28;20742;-87
2021/07/18 08:24:17;;;;;;;4.10;1.90;;;20.00;97.10;;;;;;4968935;28;20129;-81
2021/07/18 08:26:44;;;;;;;6.20;1.92;;;20.00;97.00;;;;;;4957866;28;20134;-81
2021/07/18 08:29:11;;;;;;;4.72;2.05;;;20.00;97.20;;;;;;4968106;28;20146;-80
2021/07/18 08:31:40;;;;;;;6.00;2.70;;;20.10;97.10;;;;;;4963507;28;20097;-80
2021/07/18 08:34:07;;;;;;;4.65;2.30;;;20.10;97.00;;;;;;4961797;28;20130;-80
2021/07/18 08:36:34;;;;;;;4.43;2.00;;;20.10;97.10;;;;;;4970273;28;20051;-80
2021/07/18 08:39:01;;;;;;;4.28;1.90;;;20.10;97.10;;;;;;4970627;28;20074;-81
2021/07/18 08:41:28;;;;;;;4.60;2.10;;;20.20;97.30;;;;;;4966019;28;20151;-81
2021/07/18 08:43:56;;;;;;;5.35;2.05;;;20.30;97.10;;;;;;4959460;28;20142;-81
2021/07/18 08:46:23;;;;;;;5.35;2.25;;;20.30;97.00;;;;;;4956379;28;20054;-80
2021/07/18 08:48:52;;;;;;;4.55;2.08;;;20.30;96.90;;;;;;4962305;28;20078;-83
2021/07/18 08:51:19;;;;;;;4.45;2.08;;;20.40;97.00;;;;;;4964734;28;20130;-83
2021/07/18 08:53:46;;;;;;;5.85;2.00;;;20.50;96.80;;;;;;4964254;28;20091;-82
2021/07/18 08:56:13;;;;;;;4.82;2.10;;;20.50;96.80;;;;;;4976797;28;20104;-82
2021/07/18 08:58:41;;;;;;;3.70;1.77;;;20.50;96.80;;;;;;4975622;28;20531;-80
2021/07/18 09:01:08;;;;;;;4.10;2.17;;;20.60;96.80;;;;;;4962229;28;20039;-88
2021/07/18 09:03:36;;;;;;;5.55;2.22;;;20.60;96.50;;;;;;4978363;28;20051;-91
2021/07/18 09:06:09;;;;;;;4.40;1.88;;;20.60;96.50;;;;;;4963682;28;20047;-78
2021/07/18 09:08:43;;;;;;;5.43;2.10;;;20.70;96.60;;;;;;4965680;28;20125;-75
2021/07/18 09:11:23;;;;;;;5.28;1.88;;;20.80;96.30;;;;;;4973051;28;20046;-77
2021/07/18 09:14:01;;;;;;;6.18;2.03;;;20.80;96.20;;;;;;4970687;28;20050;-76
2021/07/18 09:16:32;;;;;;;4.78;2.00;;;20.80;96.30;;;;;;4965992;28;20138;-77
2021/07/18 09:19:22;;;;;;;4.55;1.80;;;20.90;96.20;;;;;;4967347;28;20047;-78
2021/07/18 09:22:11;;;;;;;3.88;1.92;;;21.00;96.60;;;;;;4967512;28;20565;-76
2021/07/18 09:24:42;;;;;;;5.20;2.40;;;21.00;96.20;;;;;;4963833;28;20135;-78
2021/07/18 09:27:17;;;;;;;5.72;2.25;;;21.10;96.10;;;;;;4969530;28;20054;-78
2021/07/18 09:29:47;;;;;;;7.88;2.20;;;21.10;95.90;;;;;;4971249;28;20058;-81
2021/07/18 09:32:17;;;;;;;3.22;1.85;;;21.20;95.80;;;;;;4976666;28;20050;-81
2021/07/18 09:34:47;;;;;;;4.03;2.20;;;21.20;95.50;;;;;;4971970;28;20136;-76
2021/07/18 09:37:22;;;;;;;3.67;1.70;;;21.30;95.60;;;;;;4976251;28;20071;-79
2021/07/18 09:40:01;;;;;;;4.97;2.05;;;21.30;95.80;;;;;;4976482;28;20472;-79
2021/07/18 09:42:48;;;;;;;5.07;2.10;;;21.30;95.40;;;;;;4976473;28;20139;-80
2021/07/18 09:45:18;;;;;;;6.32;2.20;;;21.30;95.50;;;;;;4964405;28;20051;-80
2021/07/18 09:47:58;;;;;;;4.75;2.22;;;21.30;95.60;;;;;;4967006;28;20065;-79
2021/07/18 09:50:30;;;;;;;6.53;2.15;;;21.40;95.70;;;;;;4958968;28;20048;-78
2021/07/18 09:53:19;;;;;;;4.70;2.08;;;21.40;95.70;;;;;;4973444;28;20134;-82
2021/07/18 09:55:58;;;;;;;4.60;1.88;;;21.50;95.60;;;;;;4968605;28;20039;-84
2021/07/18 09:58:26;;;;;;;4.72;1.92;;;21.50;95.50;;;;;;4980862;28;20042;-82
2021/07/18 10:00:54;;;;;;;4.57;2.15;;;21.50;95.40;;;;;;4977114;28;20077;-81
2021/07/18 10:03:23;;;;;;;5.82;2.08;;;21.60;95.50;;;;;;4974284;28;20102;-79
2021/07/18 10:06:09;;;;;;;5.20;2.13;;;21.60;95.40;;;;;;4984396;28;20059;-80
2021/07/18 10:08:39;;;;;;;3.97;1.77;;;21.70;95.20;;;;;;4985522;28;20089;-78
2021/07/18 10:11:09;;;;;;;5.32;2.20;;;21.70;95.00;;;;;;4986611;28;20073;-80
2021/07/18 10:13:38;;;;;;;8.35;2.50;;;21.80;95.20;;;;;;4977227;28;20531;-79
2021/07/18 10:16:06;;;;;;;4.93;2.17;;;21.80;94.70;;;;;;4973291;28;20580;-80
2021/07/18 10:18:35;;;;;;;4.25;2.17;;;21.90;94.80;;;;;;4984555;28;20079;-78
2021/07/18 10:21:03;;;;;;;5.07;2.17;;;22.00;94.40;;;;;;4985449;28;20081;-79
2021/07/18 10:23:30;;;;;;;6.78;2.25;;;22.00;94.40;;;;;;4975286;28;20053;-84
2021/07/18 10:26:01;;;;;;;5.72;2.13;;;22.00;94.40;;;;;;4975737;28;20047;-78
2021/07/18 10:28:28;;;;;;;6.10;2.50;;;22.00;94.60;;;;;;4976341;28;20129;-79
2021/07/18 10:31:00;;;;;;;4.80;1.73;;;22.10;94.70;;;;;;4975938;28;20566;-78
2021/07/18 10:33:27;;;;;;;5.70;2.15;;;22.10;94.60;;;;;;4976305;28;20137;-78
2021/07/18 10:35:56;;;;;;;5.65;2.40;;;22.20;94.10;;;;;;4975516;28;20074;-80
2021/07/18 10:38:25;;;;;;;6.18;1.90;;;22.30;94.10;;;;;;4975344;28;20042;-77
2021/07/18 10:40:55;;;;;;;4.05;2.05;;;22.40;94.20;;;;;;4975156;28;20109;-78
2021/07/18 10:43:39;;;;;;;6.18;2.38;;;22.40;94.30;;;;;;4975362;28;20138;-79
2021/07/18 10:46:09;;;;;;;5.53;2.40;;;22.50;93.80;;;;;;4975265;28;20094;-77
2021/07/18 10:48:48;;;;;;;4.00;2.10;;;22.60;93.80;;;;;;4975573;28;20047;-78
2021/07/18 10:51:18;;;;;;;4.13;1.80;;;22.60;93.60;;;;;;4968283;28;20126;-77
2021/07/18 10:53:46;;;;;;;5.20;2.22;;;22.70;93.90;;;;;;4975363;28;20137;-75
2021/07/18 10:56:19;;;;;;;5.72;2.25;;;22.80;93.60;;;;;;4975469;28;20143;-79
2021/07/18 10:58:52;;;;;;;6.75;2.38;;;22.90;93.30;;;;;;4974790;28;20134;-81
2021/07/18 11:01:41;;;;;;;5.65;2.35;;;22.90;92.80;;;;;;4972696;28;20134;-79
2021/07/18 11:04:49;;;;;;;5.45;2.65;;;22.90;92.60;;;;;;4965773;28;20058;-79
2021/07/18 11:07:42;;;;;;;6.88;2.40;;;22.80;92.50;;;;;;4963860;28;20408;-78
2021/07/18 11:10:19;;;;;;;5.20;2.20;;;22.90;92.70;;;;;;4966910;28;20050;-82
2021/07/18 11:12:48;;;;;;;5.07;2.10;;;22.90;92.90;;;;;;4970472;28;20044;-80
2021/07/18 11:15:33;;;;;;;5.97;2.75;;;23.00;93.30;;;;;;4972685;28;20089;-78
2021/07/18 11:18:04;;;;;;;4.70;2.20;;;22.90;92.80;;;;;;4971987;28;20050;-76
2021/07/18 11:20:55;;;;;;;5.22;2.10;;;23.00;92.60;;;;;;4971697;28;20053;-78
2021/07/18 11:23:33;;;;;;;5.13;2.08;;;23.10;92.80;;;;;;4972210;28;20046;-77
2021/07/18 11:26:10;;;;;;;4.00;2.00;;;23.10;92.30;;;;;;4971291;28;20216;-76
2021/07/18 11:28:50;;;;;;;7.47;2.30;;;23.10;92.30;;;;;;4971803;28;20074;-77
2021/07/18 11:31:38;;;;;;;3.90;2.10;;;23.20;92.60;;;;;;4970066;28;20043;-77
2021/07/18 11:34:12;;;;;;;5.93;2.08;;;23.30;92.60;;;;;;4957355;28;20129;-76
2021/07/18 11:36:54;;;;;;;;;;;23.30;92.90;;;;;;4971489;28;20552;-79
2021/07/18 11:39:26;;;;;;;4.55;2.00;;;23.40;91.90;;;;;;4971514;28;20380;-79
2021/07/18 11:41:55;;;;;;;5.45;1.90;;;23.40;91.30;;;;;;4972207;28;20043;-79
2021/07/18 11:44:29;;;;;;;4.60;2.13;;;23.40;91.50;;;;;;4971585;28;20398;-79
2021/07/18 11:47:02;;;;;;;4.25;1.80;;;23.50;90.90;;;;;;4963051;28;20051;-79
2021/07/18 11:49:36;;;;;;;4.75;2.22;;;23.50;90.90;;;;;;4968642;28;20076;-80
2021/07/18 11:52:05;;;;;;;4.47;1.88;;;23.50;90.50;;;;;;4955706;28;20051;-79
2021/07/18 11:54:33;;;;;;;4.45;1.90;;;23.50;90.40;;;;;;4971028;28;20056;-80
2021/07/18 11:57:04;;;;;;;5.07;1.92;;;23.60;90.80;;;;;;4971651;28;20238;-79
2021/07/18 11:59:31;;;;;;;3.83;1.85;;;23.70;90.90;;;;;;4971775;28;20054;-76
2021/07/18 12:01:59;;;;;;;3.58;1.63;;;23.80;90.80;;;;;;4971439;28;20130;-80
2021/07/18 12:04:28;;;;;;;3.65;1.90;;;23.80;90.40;;;;;;4971627;28;20053;-79
2021/07/18 12:07:00;;;;;;;4.78;2.00;;;23.90;90.40;;;;;;4971845;28;20077;-79
2021/07/18 12:09:29;;;;;;;4.35;1.90;;;24.00;88.90;;;;;;4968774;28;20137;-79
2021/07/18 12:11:58;;;;;;;3.92;1.80;;;24.10;86.70;;;;;;4963819;28;20563;-80
2021/07/18 12:14:27;;;;;;;3.75;1.63;;;24.10;85.60;;;;;;4972107;28;20051;-79
2021/07/18 12:16:56;;;;;;;3.95;2.05;;;24.20;86.00;;;;;;4958480;28;20457;-80
2021/07/18 12:19:28;;;;;;;5.75;2.00;;;24.30;85.30;;;;;;4966457;28;20151;-79
2021/07/18 12:21:56;;;;;;;5.20;2.08;;;24.40;84.50;;;;;;4971410;28;20142;-80
2021/07/18 12:24:30;;;;;;;4.35;1.85;;;24.60;84.20;;;;;;4971438;28;20058;-78
2021/07/18 12:27:13;;;;;;;5.60;2.30;;;24.70;84.70;;;;;;4970897;28;20832;-78
2021/07/18 12:29:45;;;;;;;5.32;1.98;;;24.80;81.40;;;;;;4970784;28;20361;-79
2021/07/18 12:32:13;;;;;;;4.57;1.80;;;24.80;81.10;;;;;;4958362;28;20400;-81
2021/07/18 12:34:44;;;;;;;3.70;1.65;;;25.00;81.10;;;;;;4971205;28;20147;-79
2021/07/18 12:37:14;;;;;;;4.10;1.90;;;25.00;80.90;;;;;;4971667;28;20051;-78
2021/07/18 12:39:43;;;;;;;4.30;2.13;;;25.20;80.50;;;;;;4965601;28;20057;-80
2021/07/18 12:42:13;;;;;;;4.30;1.80;;;25.20;77.80;;;;;;4970050;28;20039;-80
2021/07/18 12:44:48;;;;;;;4.25;2.08;;;25.30;77.40;;;;;;4970692;28;20142;-79
2021/07/18 12:47:34;;;;;;;5.18;1.90;;;25.30;77.80;;;;;;4971490;28;20054;-79
2021/07/18 12:50:34;;;;;;;3.88;1.60;;;25.40;78.20;;;;;;4956028;28;20500;-80
2021/07/18 12:53:09;;;;;;;3.83;1.95;;;25.50;77.40;;;;;;4924878;28;20090;-79
2021/07/18 12:55:41;;;;;;;4.35;1.70;;;25.70;75.50;;;;;;4970735;28;20825;-81
2021/07/18 12:58:22;;;;;;;3.78;1.90;;;25.80;73.80;;;;;;4970811;28;20046;-81
2021/07/18 13:01:00;;;;;;;3.30;1.70;;;25.90;73.90;;;;;;4971249;28;20408;-81